Time;durP1;ratioP1;P1;durP2;ratioP2;P2;SDS_P1;SDS_P2;PMS_P1;PMS_P2;Temp;Humidity;BMP_temperature;BMP_pressure;BME280_temperature;BME280_humidity;BME280_pressure;Samples;Min_cycle;Max_cycle;Signal;HPM_P1;HPM_P2
2023/07/30 10:34:07;;;;;;;;;1.00;1.00;;;;;22.45;48.47;101444.34;6335474;22;45301;-90
2023/07/30 10:37:07;;;;;;;;;3.33;3.33;;;;;22.36;48.73;101444.06;6309305;22;45414;-90
2023/07/30 10:39:34;;;;;;;;;2.00;1.33;;;;;22.35;49.36;101442.38;6244755;22;45254;-90
2023/07/30 10:42:00;;;;;;;;;1.67;1.33;;;;;22.47;49.85;101448.56;6240492;22;46901;-90
2023/07/30 10:44:34;;;;;;;;;1.33;1.33;;;;;22.63;49.32;101447.44;6241791;22;45332;-90
2023/07/30 10:47:00;;;;;;;;;3.00;2.00;;;;;22.74;48.11;101443.97;6243470;22;45462;-91
2023/07/30 10:49:27;;;;;;;;;1.33;0.33;;;;;22.76;48.13;101453.50;6243540;22;45279;-90
2023/07/30 10:51:57;;;;;;;;;1.67;1.00;;;;;22.66;47.42;101450.72;6244740;22;46699;-90
2023/07/30 10:54:22;;;;;;;;;3.00;0.67;;;;;22.59;47.60;101446.81;6243409;22;45913;-90
2023/07/30 10:56:48;;;;;;;;;2.00;1.00;;;;;22.52;46.83;101450.88;6270429;22;45566;-90
2023/07/30 10:59:14;;;;;;;;;1.00;1.00;;;;;22.46;46.40;101446.03;6269086;22;45620;-91
2023/07/30 11:01:44;;;;;;;;;1.00;1.00;;;;;22.38;46.22;101439.50;6244212;22;46929;-90
2023/07/30 11:04:20;;;;;;;;;1.33;1.33;;;;;22.39;47.02;101441.19;6270298;22;45312;-89
2023/07/30 11:06:47;;;;;;;;;1.33;0.67;;;;;22.48;47.34;101442.31;6243691;22;45488;-90
2023/07/30 11:09:23;;;;;;;;;3.33;0.33;;;;;22.61;46.73;101439.59;6244173;22;45364;-89
2023/07/30 11:11:50;;;;;;;;;0.33;0.33;;;;;22.81;46.49;101430.09;6307827;22;45652;-90
2023/07/30 11:14:20;;;;;;;;;1.67;0.67;;;;;23.03;46.45;101433.75;6306678;22;45512;-90
2023/07/30 11:16:54;;;;;;;;;1.67;1.67;;;;;23.21;46.37;101442.06;6307651;22;45399;-91
2023/07/30 11:19:19;;;;;;;;;0.33;0.33;;;;;23.40;45.71;101445.94;6306696;22;45260;-90
2023/07/30 11:21:49;;;;;;;;;1.00;1.00;;;;;23.52;45.13;101446.78;6306778;22;46896;-90
2023/07/30 11:24:15;;;;;;;;;3.00;0.33;;;;;23.64;45.39;101446.75;6306876;22;45304;-90
2023/07/30 11:26:40;;;;;;;;;2.00;0.33;;;;;23.76;44.64;101456.38;6307814;22;45281;-90
2023/07/30 11:29:16;;;;;;;;;1.00;0.00;;;;;23.94;44.87;101454.06;6307436;22;45271;-90
2023/07/30 11:31:43;;;;;;;;;0.67;0.67;;;;;24.14;45.05;101452.44;6306810;22;47046;-90
2023/07/30 11:34:08;;;;;;;;;0.00;0.00;;;;;24.28;43.85;101445.97;6305671;22;45703;-90
2023/07/30 11:36:34;;;;;;;;;0.00;0.00;;;;;24.29;43.44;101454.78;6307876;22;45451;-90
2023/07/30 11:39:00;;;;;;;;;1.00;1.00;;;;;24.35;42.90;101442.78;6306165;22;45244;-90
2023/07/30 11:41:26;;;;;;;;;2.00;0.00;;;;;24.41;43.33;101436.94;6306210;22;45485;-90
2023/07/30 11:43:52;;;;;;;;;4.00;4.00;;;;;24.42;42.36;101442.16;6307014;22;45288;-90
2023/07/30 11:46:22;;;;;;;;;3.00;2.00;;;;;24.43;43.38;101437.66;6307005;22;45395;-90
2023/07/30 11:48:49;;;;;;;;;0.00;0.00;;;;;24.39;42.61;101445.06;6307914;22;45448;-88
2023/07/30 11:51:24;;;;;;;;;1.00;1.00;;;;;24.41;43.02;101443.13;6309519;22;46027;-89
2023/07/30 11:53:53;;;;;;;;;0.00;0.00;;;;;24.51;42.53;101450.31;6308384;22;46013;-90
2023/07/30 11:56:29;;;;;;;;;0.00;0.00;;;;;24.64;42.80;101442.13;6309791;22;45403;-89
2023/07/30 11:59:07;;;;;;;;;1.33;1.00;;;;;24.84;42.11;101442.28;6309457;22;45411;-90
2023/07/30 12:01:36;;;;;;;;;0.00;0.00;;;;;24.97;41.73;101448.22;6308562;22;47369;-89
2023/07/30 12:04:03;;;;;;;;;0.33;0.33;;;;;25.07;41.11;101448.25;6309077;22;45591;-90
2023/07/30 12:06:38;;;;;;;;;1.67;0.00;;;;;25.18;41.67;101448.16;6310281;22;45369;-90
2023/07/30 12:09:13;;;;;;;;;0.00;0.00;;;;;25.32;41.03;101444.28;6310323;22;45338;-90
2023/07/30 12:11:59;;;;;;;;;0.67;0.67;;;;;25.45;40.16;101441.38;6309199;22;46201;-89
2023/07/30 12:14:33;;;;;;;;;2.00;0.33;;;;;25.52;40.30;101435.50;6309551;22;45352;-90
2023/07/30 12:17:00;;;;;;;;;2.00;1.00;;;;;25.63;40.36;101421.28;6309962;22;45356;-90
2023/07/30 12:19:25;;;;;;;;;3.00;2.00;;;;;25.71;40.09;101432.91;6336954;22;45167;-89
2023/07/30 12:21:51;;;;;;;;;3.67;1.33;;;;;25.85;40.14;101428.16;6309749;22;45623;-90
2023/07/30 12:24:16;;;;;;;;;1.00;1.00;;;;;25.95;39.54;101433.47;6309976;22;45288;-89
2023/07/30 12:26:42;;;;;;;;;0.00;0.00;;;;;26.04;39.15;101427.31;6338125;22;45207;-90
2023/07/30 12:29:07;;;;;;;;;1.00;1.00;;;;;26.13;39.49;101421.16;6309735;22;45602;-90
2023/07/30 12:31:32;;;;;;;;;0.67;0.00;;;;;26.26;40.28;101420.03;6309627;22;46703;-89
2023/07/30 12:33:58;;;;;;;;;3.00;1.00;;;;;26.36;39.96;101422.69;6337426;22;45218;-90
2023/07/30 12:36:23;;;;;;;;;1.33;1.33;;;;;26.38;38.23;101424.22;6308779;22;45262;-90
2023/07/30 12:38:49;;;;;;;;;2.00;0.67;;;;;26.38;38.89;101429.56;6310111;22;45266;-90
2023/07/30 12:41:14;;;;;;;;;1.00;1.00;;;;;26.34;39.09;101424.66;6309448;22;45854;-90
2023/07/30 12:43:39;;;;;;;;;0.00;0.00;;;;;26.35;38.56;101432.53;6310252;22;45216;-89
2023/07/30 12:46:05;;;;;;;;;2.00;0.33;;;;;26.39;38.51;101431.25;6309318;22;45262;-90
2023/07/30 12:48:32;;;;;;;;;2.00;2.00;;;;;26.42;38.42;101427.44;6309472;22;45626;-89
2023/07/30 12:50:57;;;;;;;;;1.67;1.00;;;;;26.49;38.34;101431.25;6283652;22;45731;-90
2023/07/30 12:53:22;;;;;;;;;2.00;1.00;;;;;26.50;38.27;101432.06;6336218;22;45270;-89
2023/07/30 12:55:48;;;;;;;;;1.00;1.00;;;;;26.43;37.91;101442.50;6309113;22;45439;-89
2023/07/30 12:58:13;;;;;;;;;1.00;1.00;;;;;26.29;37.64;101441.09;6308253;22;45301;-90
2023/07/30 13:00:39;;;;;;;;;0.00;0.00;;;;;26.21;37.24;101433.78;6309224;22;46511;-89
2023/07/30 13:03:04;;;;;;;;;2.00;1.00;;;;;26.25;38.25;101435.19;6309495;22;45295;-89
2023/07/30 13:05:29;;;;;;;;;2.00;2.00;;;;;26.27;38.07;101438.56;6309029;22;45365;-89
2023/07/30 13:07:55;;;;;;;;;1.33;1.33;;;;;26.33;38.01;101429.16;6308474;22;45750;-89
2023/07/30 13:10:20;;;;;;;;;1.33;1.00;;;;;26.38;37.98;101424.22;6336242;22;45451;-89
2023/07/30 13:12:46;;;;;;;;;3.67;1.33;;;;;26.41;37.70;101423.94;6309364;22;45324;-90
2023/07/30 13:15:11;;;;;;;;;3.00;0.00;;;;;26.44;37.91;101425.50;6309264;22;45480;-89
2023/07/30 13:17:37;;;;;;;;;5.00;1.00;;;;;26.47;37.76;101435.03;6282365;22;45432;-89
2023/07/30 13:20:03;;;;;;;;;0.00;0.00;;;;;26.47;37.32;101433.19;6307741;22;47476;-89
2023/07/30 13:22:29;;;;;;;;;0.00;0.00;;;;;26.54;38.09;101431.66;6309075;22;45517;-90
2023/07/30 13:24:55;;;;;;;;;1.67;0.67;;;;;26.63;37.89;101426.41;6308445;22;45402;-90
2023/07/30 13:27:20;;;;;;;;;1.33;1.33;;;;;26.69;37.33;101428.50;6309801;22;45594;-90
2023/07/30 13:29:46;;;;;;;;;2.67;1.00;;;;;26.79;37.79;101428.47;6308730;22;45494;-90
2023/07/30 13:32:13;;;;;;;;;1.00;1.00;;;;;26.92;37.56;101436.19;6336953;22;45320;-90
2023/07/30 13:34:39;;;;;;;;;1.00;1.00;;;;;26.94;37.52;101437.72;6310050;22;45340;-89
2023/07/30 13:37:04;;;;;;;;;0.67;0.67;;;;;26.90;36.93;101430.13;6309983;22;45311;-90
2023/07/30 13:39:30;;;;;;;;;3.00;2.00;;;;;26.84;37.05;101431.53;6309193;22;45946;-90
2023/07/30 13:41:55;;;;;;;;;0.67;0.67;;;;;26.77;37.33;101417.97;6308740;22;45268;-89
2023/07/30 13:44:21;;;;;;;;;4.00;2.33;;;;;26.73;36.88;101421.91;6309042;22;45285;-89
2023/07/30 13:46:46;;;;;;;;;1.00;1.00;;;;;26.73;36.79;101432.56;6309282;22;45228;-89
2023/07/30 13:49:12;;;;;;;;;3.00;2.00;;;;;26.81;37.45;101427.34;6309703;22;45900;-89
2023/07/30 13:51:37;;;;;;;;;3.00;2.00;;;;;26.91;36.69;101423.81;6309705;22;45281;-90
2023/07/30 13:54:03;;;;;;;;;1.00;1.00;;;;;26.97;37.09;101422.41;6308307;22;45511;-89
2023/07/30 13:56:29;;;;;;;;;3.33;1.00;;;;;27.06;36.85;101422.38;6308351;22;45329;-90
2023/07/30 13:58:55;;;;;;;;;0.00;0.00;;;;;27.16;36.62;101422.31;6309510;22;46032;-89
2023/07/30 14:01:20;;;;;;;;;2.00;1.00;;;;;27.23;36.56;101424.38;6309780;22;45521;-89
2023/07/30 14:03:46;;;;;;;;;3.67;2.00;;;;;27.22;35.59;101423.56;6309555;22;45319;-90
2023/07/30 14:06:12;;;;;;;;;3.33;1.67;;;;;27.21;36.12;101422.72;6337750;22;45285;-90
2023/07/30 14:08:38;;;;;;;;;1.00;1.00;;;;;27.30;36.42;101425.50;6335244;22;46661;-90
2023/07/30 14:11:03;;;;;;;;;1.67;0.33;;;;;27.42;36.45;101418.09;6309138;22;45462;-89
2023/07/30 14:13:29;;;;;;;;;0.33;0.33;;;;;27.55;36.17;101410.56;6309874;22;45388;-90
2023/07/30 14:15:55;;;;;;;;;1.00;1.00;;;;;27.53;35.46;101412.53;6337431;22;45400;-89
2023/07/30 14:18:25;;;;;;;;;1.33;1.33;;;;;27.47;35.68;101419.34;6309459;22;45699;-90
2023/07/30 14:20:51;;;;;;;;;3.00;1.67;;;;;27.38;35.73;101416.69;6335221;22;45425;-90
2023/07/30 14:23:16;;;;;;;;;1.00;1.00;;;;;27.31;35.52;101417.31;6308135;22;45420;-89
2023/07/30 14:25:42;;;;;;;;;2.33;2.33;;;;;27.20;35.78;101413.03;6309551;22;45453;-90
2023/07/30 14:28:10;;;;;;;;;1.00;1.00;;;;;27.09;35.50;101407.88;6308088;22;45595;-89
2023/07/30 14:30:35;;;;;;;;;3.00;2.00;;;;;27.04;35.72;101404.81;6283082;22;45268;-89
2023/07/30 14:33:02;;;;;;;;;1.33;0.67;;;;;26.94;36.12;101405.69;6308767;22;45462;-89
2023/07/30 14:35:27;;;;;;;;;2.00;2.00;;;;;26.86;35.33;101412.72;6309708;22;45287;-90
2023/07/30 14:37:53;;;;;;;;;1.00;0.67;;;;;26.72;35.45;101408.69;6308874;22;47247;-90
2023/07/30 14:40:18;;;;;;;;;1.33;1.33;;;;;26.64;35.71;101401.41;6336798;22;45227;-90
2023/07/30 14:42:43;;;;;;;;;4.33;2.00;;;;;26.60;36.48;101413.38;6309308;22;45155;-89
2023/07/30 14:45:09;;;;;;;;;3.00;3.00;;;;;26.53;36.32;101405.94;6338060;22;45294;-89
2023/07/30 14:47:35;;;;;;;;;1.00;1.00;;;;;26.49;35.78;101403.69;6337666;22;45480;-90
2023/07/30 14:50:01;;;;;;;;;2.33;1.00;;;;;26.45;35.96;101408.50;6309286;22;45207;-89
2023/07/30 14:52:26;;;;;;;;;2.67;2.33;;;;;26.35;36.08;101410.34;6309672;22;45383;-90
2023/07/30 14:54:52;;;;;;;;;3.00;2.33;;;;;26.30;36.32;101409.91;6309116;22;45309;-89
2023/07/30 14:57:17;;;;;;;;;3.33;1.00;;;;;26.21;36.20;101409.78;6337724;22;45920;-90
2023/07/30 14:59:43;;;;;;;;;2.00;2.00;;;;;26.19;36.56;101402.91;6307998;22;45293;-90
2023/07/30 15:02:09;;;;;;;;;4.00;1.33;;;;;26.16;36.87;101406.69;6308457;22;45816;-90
2023/07/30 15:04:34;;;;;;;;;2.67;2.00;;;;;26.14;36.86;101400.63;6309836;22;45374;-90
2023/07/30 15:07:00;;;;;;;;;3.00;1.67;;;;;26.05;36.94;101394.31;6308681;22;48264;-91
2023/07/30 15:09:25;;;;;;;;;1.00;1.00;;;;;25.99;36.82;101398.41;6308632;22;45230;-90
2023/07/30 15:11:51;;;;;;;;;1.33;1.33;;;;;25.92;36.99;101397.28;6308606;22;45305;-90
2023/07/30 15:14:16;;;;;;;;;3.67;3.00;;;;;25.85;37.31;101401.50;6308357;22;45237;-89
2023/07/30 15:16:41;;;;;;;;;3.00;3.00;;;;;25.81;37.42;101397.41;6304796;22;47125;-90
2023/07/30 15:19:07;;;;;;;;;3.00;2.00;;;;;25.76;37.38;101400.50;6306383;22;45297;-91
2023/07/30 15:21:32;;;;;;;;;2.33;2.33;;;;;25.67;37.09;101402.19;6307966;22;45501;-89
2023/07/30 15:23:58;;;;;;;;;3.00;1.00;;;;;25.57;36.85;101398.66;6336693;22;45199;-89
2023/07/30 15:26:24;;;;;;;;;2.00;2.00;;;;;25.50;37.14;101403.66;6333641;22;45680;-90
2023/07/30 15:28:49;;;;;;;;;2.33;0.00;;;;;25.44;37.46;101402.41;6308816;22;45277;-90
2023/07/30 15:31:14;;;;;;;;;1.67;1.67;;;;;25.38;37.63;101399.44;6336702;22;45453;-90
2023/07/30 15:33:40;;;;;;;;;2.00;2.00;;;;;25.34;37.59;101405.06;6309472;22;45369;-89
2023/07/30 15:36:05;;;;;;;;;2.00;1.67;;;;;25.33;37.51;101403.34;6309627;22;46961;-90
2023/07/30 15:38:31;;;;;;;;;3.00;1.67;;;;;25.30;37.85;101414.28;6309462;22;45431;-90
2023/07/30 15:40:57;;;;;;;;;2.33;2.00;;;;;25.28;37.79;101412.75;6309906;22;45206;-89
2023/07/30 15:43:22;;;;;;;;;1.00;1.00;;;;;25.22;37.51;101412.31;6310921;22;45478;-90
2023/07/30 15:45:47;;;;;;;;;3.00;1.33;;;;;25.16;37.95;101414.66;6309826;22;47313;-89
2023/07/30 15:48:13;;;;;;;;;5.00;4.00;;;;;25.08;37.84;101408.19;6337925;22;45286;-88
2023/07/30 15:50:39;;;;;;;;;1.00;1.00;;;;;25.01;38.05;101409.72;6310117;22;45304;-89
2023/07/30 15:53:05;;;;;;;;;3.00;2.33;;;;;24.93;37.77;101414.84;6310255;22;45439;-90
2023/07/30 15:55:32;;;;;;;;;3.00;2.00;;;;;24.82;38.47;101413.13;6310027;22;46980;-90
2023/07/30 15:57:59;;;;;;;;;2.67;2.67;;;;;24.75;38.39;101412.78;6309702;22;45250;-89
2023/07/30 16:00:25;;;;;;;;;2.00;1.00;;;;;24.70;38.75;101415.00;6310321;22;45233;-90
2023/07/30 16:02:50;;;;;;;;;55.00;26.75;;;;;24.64;39.00;101416.38;6311838;22;45286;-92
2023/07/30 16:05:16;;;;;;;;;35.75;12.50;;;;;24.61;38.74;101415.78;6311645;22;48264;-89
2023/07/30 16:07:41;;;;;;;;;20.67;7.00;;;;;24.57;39.16;101427.69;6338949;22;44729;-89
2023/07/30 16:10:07;;;;;;;;;7.00;3.00;;;;;24.53;38.81;101435.91;6310470;22;44796;-89
2023/07/30 16:12:33;;;;;;;;;3.00;2.00;;;;;24.50;39.47;101428.19;6310596;22;45526;-90
2023/07/30 16:14:58;;;;;;;;;3.33;2.00;;;;;24.45;39.13;101427.75;6310437;22;48042;-90
2023/07/30 16:17:24;;;;;;;;;1.67;1.67;;;;;24.41;39.49;101427.16;6309974;22;45235;-89
2023/07/30 16:19:49;;;;;;;;;2.67;2.00;;;;;24.38;39.80;101432.72;6337578;22;45504;-89
2023/07/30 16:22:14;;;;;;;;;2.00;2.00;;;;;24.35;39.89;101426.84;6310672;22;45297;-88
2023/07/30 16:24:40;;;;;;;;;2.67;2.33;;;;;24.29;39.96;101420.19;6310107;22;48063;-88
2023/07/30 16:27:06;;;;;;;;;2.33;1.00;;;;;24.24;39.84;101417.94;6306252;22;45719;-89
2023/07/30 16:29:32;;;;;;;;;0.33;0.33;;;;;24.24;39.78;101411.75;6305416;22;45391;-89
2023/07/30 16:31:58;;;;;;;;;3.33;1.00;;;;;24.22;40.15;101417.22;6304596;22;45464;-89
2023/07/30 16:34:23;;;;;;;;;1.67;1.67;;;;;24.18;39.94;101414.94;6306598;22;47026;-89
2023/07/30 16:36:48;;;;;;;;;3.00;1.00;;;;;24.16;39.96;101415.06;6306917;22;45383;-90
2023/07/30 16:39:14;;;;;;;;;2.00;1.67;;;;;24.12;40.54;101408.34;6334579;22;45456;-89
2023/07/30 16:41:40;;;;;;;;;5.00;2.00;;;;;24.13;40.69;101402.91;6307246;22;45557;-89
2023/07/30 16:44:06;;;;;;;;;1.33;1.33;;;;;24.15;40.99;101402.75;6307682;22;47334;-89
2023/07/30 16:46:32;;;;;;;;;4.00;4.00;;;;;24.16;40.92;101401.75;6336873;22;45419;-89
2023/07/30 16:48:57;;;;;;;;;1.00;1.00;;;;;24.14;40.83;101393.09;6308152;22;45519;-89
2023/07/30 16:51:23;;;;;;;;;4.67;1.67;;;;;24.18;41.25;101386.56;6310076;22;45396;-89
2023/07/30 16:53:49;;;;;;;;;3.00;1.00;;;;;24.22;40.88;101382.66;6309196;22;48028;-89
2023/07/30 16:56:15;;;;;;;;;3.67;2.33;;;;;24.24;40.93;101386.03;6309586;22;45230;-90
2023/07/30 16:58:41;;;;;;;;;2.00;1.00;;;;;24.23;40.90;101384.34;6309229;22;45377;-89
2023/07/30 17:01:07;;;;;;;;;0.33;0.00;;;;;24.25;40.58;101394.88;6337319;22;45562;-89
2023/07/30 17:03:36;;;;;;;;;1.00;1.00;;;;;24.22;40.80;101390.66;6336534;22;45243;-90
2023/07/30 17:06:01;;;;;;;;;3.00;1.00;;;;;24.24;40.76;101390.50;6309077;22;45423;-90
2023/07/30 17:08:27;;;;;;;;;3.00;3.00;;;;;24.21;40.95;101390.78;6308775;22;45280;-90
2023/07/30 17:10:54;;;;;;;;;2.67;1.00;;;;;24.22;41.06;101389.78;6309178;22;45301;-90
2023/07/30 17:13:20;;;;;;;;;0.67;0.67;;;;;24.20;41.11;101389.91;6308977;22;47579;-89
2023/07/30 17:15:45;;;;;;;;;1.00;0.67;;;;;24.19;41.30;101404.19;6301065;22;45515;-90
2023/07/30 17:18:23;;;;;;;;;1.00;1.00;;;;;24.17;41.12;101397.31;6303017;22;45495;-92
2023/07/30 17:20:57;;;;;;;;;2.00;2.00;;;;;24.14;41.10;101398.41;6330968;22;44808;-91
2023/07/30 17:23:22;;;;;;;;;2.33;1.00;;;;;24.10;41.46;101408.47;6306759;22;45693;-91
2023/07/30 17:26:27;;;;;;;;;1.33;1.33;;;;;24.07;41.00;101398.03;6307704;22;45283;-91
2023/07/30 17:29:13;;;;;;;;;1.67;1.67;;;;;24.04;41.21;101403.63;6208512;22;45365;-92
2023/07/30 17:31:47;;;;;;;;;2.33;1.00;;;;;24.04;41.46;101403.63;6206515;22;45278;-89
2023/07/30 17:34:13;;;;;;;;;4.67;2.67;;;;;24.03;41.63;101404.59;6203889;22;46895;-90
2023/07/30 17:36:50;;;;;;;;;4.33;3.00;;;;;24.00;41.29;101410.16;6180771;22;45473;-90
2023/07/30 17:39:38;;;;;;;;;1.00;1.00;;;;;23.93;41.54;101411.66;6183135;22;45555;-93
2023/07/30 17:42:04;;;;;;;;;2.00;2.00;;;;;23.88;42.03;101418.19;6152355;23;45315;-93
2023/07/30 17:44:30;;;;;;;;;3.67;1.33;;;;;23.86;41.88;101417.47;6152623;23;45665;-93
2023/07/30 17:50:16;;;;;;;;;2.00;2.00;;;;;23.76;41.86;101422.69;6118712;23;45539;-92
2023/07/30 17:52:42;;;;;;;;;1.67;1.33;;;;;23.75;42.25;101418.34;6117939;23;45588;-94
2023/07/30 17:55:08;;;;;;;;;2.00;1.67;;;;;23.72;42.35;101420.41;6092298;23;45679;-94
2023/07/30 17:57:33;;;;;;;;;1.67;1.67;;;;;23.70;42.34;101425.84;6090430;23;45480;-92
2023/07/30 17:59:59;;;;;;;;;2.00;2.00;;;;;23.66;42.06;101426.22;6109169;23;45305;-93
2023/07/30 18:02:25;;;;;;;;;1.33;1.00;;;;;23.64;42.15;101425.50;6146888;23;45547;-93
2023/07/30 18:04:50;;;;;;;;;2.33;2.33;;;;;23.60;42.32;101420.44;6146446;23;47190;-94
2023/07/30 18:07:16;;;;;;;;;1.00;1.00;;;;;23.62;42.61;101426.47;6146809;23;45259;-92
2023/07/30 18:09:41;;;;;;;;;3.67;2.67;;;;;23.64;42.87;101423.69;6148362;23;46272;-92
2023/07/30 18:12:07;;;;;;;;;3.00;2.00;;;;;23.66;42.59;101423.56;6147405;23;45611;-93
2023/07/30 18:14:35;;;;;;;;;3.00;2.33;;;;;23.64;42.59;101421.03;6121930;23;48262;-93
2023/07/30 18:17:01;;;;;;;;;1.00;1.00;;;;;23.64;42.71;101431.66;6120936;23;45929;-92
2023/07/30 18:19:26;;;;;;;;;2.33;1.67;;;;;23.62;42.89;101429.13;6174512;22;45370;-91
2023/07/30 18:21:53;;;;;;;;;3.67;1.33;;;;;23.61;42.80;101432.75;6184671;22;45335;-92
2023/07/30 18:24:18;;;;;;;;;3.67;2.00;;;;;23.61;42.99;101438.06;6207777;22;47226;-93
2023/07/30 18:26:44;;;;;;;;;1.33;1.00;;;;;23.56;42.80;101436.75;6181655;22;45637;-93
2023/07/30 18:29:09;;;;;;;;;4.33;2.33;;;;;23.52;43.45;101437.97;6181385;22;45411;-94
2023/07/30 18:31:34;;;;;;;;;6.00;3.00;;;;;23.47;43.14;101441.81;6182470;22;45217;-92
2023/07/30 18:34:00;;;;;;;;;1.00;1.00;;;;;23.43;43.17;101439.53;6278356;22;47143;-93
2023/07/30 18:36:25;;;;;;;;;2.33;1.33;;;;;23.40;43.05;101434.47;6327963;22;45252;-92
2023/07/30 18:38:50;;;;;;;;;3.00;1.67;;;;;23.38;43.38;101441.72;6326828;22;45161;-92
2023/07/30 18:41:16;;;;;;;;;3.67;3.00;;;;;23.34;43.58;101435.81;6302102;22;45241;-93
2023/07/30 18:43:41;;;;;;;;;3.00;2.33;;;;;23.28;43.60;101446.91;6301174;22;46932;-92
2023/07/30 18:46:06;;;;;;;;;3.00;3.00;;;;;23.23;43.26;101444.59;6301531;22;45316;-93
2023/07/30 18:48:32;;;;;;;;;4.00;4.00;;;;;23.19;43.71;101448.47;6329086;22;45186;-92
2023/07/30 18:50:57;;;;;;;;;3.00;2.33;;;;;23.19;43.87;101448.47;6302452;22;45694;-92
2023/07/30 18:53:23;;;;;;;;;3.33;1.33;;;;;23.13;43.60;101446.31;6328803;22;46883;-92
2023/07/30 18:55:51;;;;;;;;;2.00;1.33;;;;;23.06;43.65;101440.63;6328089;22;45623;-92
2023/07/30 18:58:17;;;;;;;;;1.33;1.33;;;;;23.03;43.94;101441.69;6304279;22;45299;-92
2023/07/30 19:00:42;;;;;;;;;3.33;2.00;;;;;23.04;44.10;101439.88;6300727;22;45572;-92
2023/07/30 19:03:08;;;;;;;;;2.33;2.33;;;;;23.02;43.98;101445.31;6328717;22;46903;-92
2023/07/30 19:05:33;;;;;;;;;1.33;1.33;;;;;23.02;44.26;101453.28;6328307;22;45487;-93
2023/07/30 19:08:01;;;;;;;;;1.67;0.67;;;;;23.04;44.09;101455.81;6329640;22;45452;-92
2023/07/30 19:10:27;;;;;;;;;1.33;1.33;;;;;23.01;44.20;101446.25;6303418;22;44936;-93
2023/07/30 19:12:52;;;;;;;;;1.67;0.33;;;;;23.01;44.10;101456.88;6330399;22;47988;-92
2023/07/30 19:15:18;;;;;;;;;2.67;2.00;;;;;22.97;44.41;101458.09;6304489;22;45375;-93
2023/07/30 19:18:05;;;;;;;;;0.33;0.33;;;;;22.95;44.84;101460.88;6303706;22;45441;-92
2023/07/30 19:20:32;;;;;;;;;3.00;2.33;;;;;22.94;44.86;101460.97;6243850;22;45602;-92
2023/07/30 19:22:58;;;;;;;;;1.33;1.33;;;;;22.91;44.79;101466.56;6245682;22;48232;-91
2023/07/30 19:25:23;;;;;;;;;1.67;1.67;;;;;22.87;44.95;101455.31;6244789;22;45314;-91
2023/07/30 19:27:49;;;;;;;;;2.00;2.00;;;;;22.86;45.11;101461.56;6245016;22;45263;-91
2023/07/30 19:30:38;;;;;;;;;1.67;1.33;;;;;22.85;44.96;101457.25;6270877;22;45373;-91
2023/07/30 19:33:07;;;;;;;;;1.33;1.33;;;;;22.83;45.12;101462.66;6268690;22;45589;-92
2023/07/30 19:35:59;;;;;;;;;2.33;2.33;;;;;22.81;45.15;101461.94;6265993;22;45651;-91
2023/07/30 19:41:46;;;;;;;;;1.67;1.00;;;;;22.64;45.11;101433.22;6318312;22;44898;-95
2023/07/30 19:44:12;;;;;;;;;3.00;1.33;;;;;22.61;45.42;101421.03;6314765;22;45291;-96
2023/07/30 19:46:38;;;;;;;;;2.00;1.67;;;;;22.58;45.99;101423.09;6315376;22;45389;-96
2023/07/30 19:49:04;;;;;;;;;2.67;2.67;;;;;22.45;45.65;101404.56;6312215;22;45385;-96
2023/07/30 19:51:30;;;;;;;;;1.33;1.33;;;;;22.45;45.58;101410.69;6310930;22;45361;-95
2023/07/30 19:54:34;;;;;;;;;5.67;3.33;;;;;22.43;45.31;101405.53;6310428;22;47141;-96
2023/07/30 19:57:17;;;;;;;;;3.00;3.00;;;;;22.60;45.83;101431.75;6312971;22;45373;-96
2023/07/30 20:17:49;;;;;;;;;2.33;2.33;;;;;22.36;46.54;101467.94;6302997;22;45333;-89
2023/07/30 20:20:18;;;;;;;;;2.00;2.00;;;;;22.37;46.43;101463.47;6327209;22;45654;-90
2023/07/30 20:22:43;;;;;;;;;1.67;1.67;;;;;22.35;46.60;101465.41;6301008;22;45515;-89
2023/07/30 20:25:09;;;;;;;;;4.00;2.67;;;;;22.31;46.24;101464.78;6301406;22;45527;-89
2023/07/30 20:27:34;;;;;;;;;4.00;4.00;;;;;22.25;46.52;101459.94;6301727;22;45274;-89
2023/07/30 20:30:00;;;;;;;;;6.00;1.33;;;;;22.25;46.47;101457.28;6300116;22;45305;-90
2023/07/30 20:33:04;;;;;;;;;3.33;2.67;;;;;22.25;46.52;101465.22;6301348;22;45514;-92
2023/07/30 20:35:30;;;;;;;;;2.33;2.33;;;;;22.21;47.12;101467.28;6300969;22;45645;-92
2023/07/30 20:37:56;;;;;;;;;6.00;3.00;;;;;22.21;46.93;101467.28;6301574;22;45289;-91
2023/07/30 20:40:26;;;;;;;;;4.00;4.00;;;;;22.18;47.54;101456.91;6302182;22;45194;-91
2023/07/30 20:42:52;;;;;;;;;2.00;2.00;;;;;22.17;47.36;101449.91;6302542;22;45536;-92
2023/07/30 20:45:20;;;;;;;;;3.00;3.00;;;;;22.16;46.94;101446.41;6299701;22;46818;-91
2023/07/30 20:47:49;;;;;;;;;2.00;2.00;;;;;22.15;46.94;101443.88;6301229;22;45718;-92
2023/07/30 20:50:16;;;;;;;;;3.33;3.33;;;;;22.12;47.55;101434.34;6300350;22;45472;-92
2023/07/30 20:52:45;;;;;;;;;3.67;2.67;;;;;22.12;47.49;101436.16;6326527;22;45476;-92
2023/07/30 20:55:19;;;;;;;;;3.67;3.00;;;;;22.13;47.17;101445.81;6301633;22;47121;-90
2023/07/30 20:57:45;;;;;;;;;4.00;2.00;;;;;22.12;47.62;101444.13;6327834;22;45651;-91
2023/07/30 21:00:11;;;;;;;;;4.00;4.00;;;;;22.10;47.39;101433.63;6301103;22;45524;-90
2023/07/30 21:02:37;;;;;;;;;3.00;3.00;;;;;22.11;47.75;101437.97;6301823;22;45476;-91
2023/07/30 21:05:03;;;;;;;;;2.33;2.33;;;;;22.09;47.75;101439.03;6300997;22;47911;-90
2023/07/30 21:07:30;;;;;;;;;2.33;2.33;;;;;22.07;47.57;101439.13;6273993;22;45216;-90
2023/07/30 21:09:56;;;;;;;;;1.00;1.00;;;;;22.07;48.11;101441.78;6326418;22;45232;-90
2023/07/30 21:12:32;;;;;;;;;1.33;1.33;;;;;22.06;47.59;101442.75;6302414;22;45384;-89
2023/07/30 21:15:06;;;;;;;;;2.00;2.00;;;;;22.06;48.18;101441.91;6301772;22;47560;-90
2023/07/30 21:17:31;;;;;;;;;3.00;2.00;;;;;22.02;48.04;101431.53;6301067;22;45231;-91
2023/07/30 21:19:57;;;;;;;;;4.00;3.33;;;;;22.05;47.87;101438.41;6301333;22;45329;-92
2023/07/30 21:22:22;;;;;;;;;3.00;3.00;;;;;22.03;48.28;101430.56;6301688;22;45364;-91
2023/07/30 21:24:49;;;;;;;;;3.67;2.33;;;;;22.01;48.28;101426.34;6327715;22;46936;-92
2023/07/30 21:27:14;;;;;;;;;3.00;3.00;;;;;22.02;48.29;101426.25;6300595;22;45460;-91
2023/07/30 21:29:39;;;;;;;;;0.67;0.33;;;;;22.00;48.38;101417.53;6300649;22;45211;-91
2023/07/30 21:32:05;;;;;;;;;3.67;3.67;;;;;22.00;48.44;101420.19;6328907;22;45475;-92
2023/07/30 21:34:31;;;;;;;;;3.67;2.67;;;;;22.00;48.16;101422.00;6300042;22;47177;-91
2023/07/30 21:36:56;;;;;;;;;3.67;3.67;;;;;21.95;48.42;101419.72;6300916;22;45554;-91
2023/07/30 21:39:22;;;;;;;;;2.33;2.33;;;;;21.95;48.65;101421.50;6302144;22;45283;-91
2023/07/30 21:41:47;;;;;;;;;4.00;2.00;;;;;21.91;48.50;101418.25;6303729;22;45375;-91
2023/07/30 21:44:12;;;;;;;;;2.67;2.67;;;;;21.89;48.76;101426.28;6329215;22;47143;-92
2023/07/30 21:46:38;;;;;;;;;1.00;1.00;;;;;21.88;48.50;101429.06;6306092;22;45667;-91
2023/07/30 21:49:03;;;;;;;;;2.33;2.33;;;;;21.85;48.72;101421.34;6331469;22;45444;-92
2023/07/30 21:51:28;;;;;;;;;3.67;3.00;;;;;21.82;48.96;101414.47;6299775;22;45518;-91
2023/07/30 21:53:54;;;;;;;;;4.33;2.67;;;;;21.80;48.83;101407.59;6242418;22;47198;-92
2023/07/30 21:56:19;;;;;;;;;2.00;2.00;;;;;21.81;48.97;101414.56;6299675;22;45374;-92
2023/07/30 21:58:45;;;;;;;;;3.67;3.33;;;;;21.78;49.24;101405.03;6305035;22;45360;-92
2023/07/30 22:01:10;;;;;;;;;2.00;2.00;;;;;21.79;48.85;101405.91;6305383;22;45467;-92
